sensor_id;sensor_type;location;lat;lon;timestamp;pressure;altitude;pressure_sealevel;temperature;humidity
50226;BME280;36113;50.742;6.432;2022-10-26T00:02:13;148061.44;;;12.54;100.00
50226;BME280;36113;50.742;6.432;2022-10-26T00:04:38;148065.19;;;12.55;100.00
50226;BME280;36113;50.742;6.432;2022-10-26T00:07:04;148052.66;;;12.50;100.00
50226;BME280;36113;50.742;6.432;2022-10-26T00:09:29;148043.88;;;12.47;100.00
50226;BME280;36113;50.742;6.432;2022-10-26T00:11:54;148023.81;;;12.38;100.00
50226;BME280;36113;50.742;6.432;2022-10-26T00:14:19;148080.22;;;12.62;100.00
50226;BME280;36113;50.742;6.432;2022-10-26T00:16:45;148094.06;;;12.67;100.00
50226;BME280;36113;50.742;6.432;2022-10-26T00:19:10;148104.06;;;12.71;100.00
50226;BME280;36113;50.742;6.432;2022-10-26T00:21:35;148124.16;;;12.80;100.00
50226;BME280;36113;50.742;6.432;2022-10-26T00:24:01;148135.47;;;12.84;100.00
50226;BME280;36113;50.742;6.432;2022-10-26T00:26:26;148095.28;;;12.68;100.00
50226;BME280;36113;50.742;6.432;2022-10-26T00:28:53;148087.75;;;12.65;100.00
50226;BME280;36113;50.742;6.432;2022-10-26T00:31:19;148047.66;;;12.48;100.00
50226;BME280;36113;50.742;6.432;2022-10-26T00:33:44;148142.97;;;12.87;100.00
50226;BME280;36113;50.742;6.432;2022-10-26T00:36:10;148150.50;;;12.90;100.00
50226;BME280;36113;50.742;6.432;2022-10-26T00:38:37;148170.56;;;12.99;100.00
50226;BME280;36113;50.742;6.432;2022-10-26T00:41:03;148243.34;;;13.28;100.00
50226;BME280;36113;50.742;6.432;2022-10-26T00:45:56;148286.06;;;13.46;100.00
50226;BME280;36113;50.742;6.432;2022-10-26T00:48:26;148304.91;;;13.54;100.00
50226;BME280;36113;50.742;6.432;2022-10-26T00:50:53;148322.47;;;13.61;100.00
50226;BME280;36113;50.742;6.432;2022-10-26T00:53:21;148342.56;;;13.69;100.00
50226;BME280;36113;50.742;6.432;2022-10-26T00:55:49;148343.81;;;13.69;100.00
50226;BME280;36113;50.742;6.432;2022-10-26T00:58:15;148342.56;;;13.69;100.00
50226;BME280;36113;50.742;6.432;2022-10-26T01:00:41;148346.34;;;13.71;100.00
50226;BME280;36113;50.742;6.432;2022-10-26T01:03:08;148345.06;;;13.70;100.00
50226;BME280;36113;50.742;6.432;2022-10-26T01:05:37;148345.06;;;13.70;100.00
50226;BME280;36113;50.742;6.432;2022-10-26T01:08:02;148316.22;;;13.58;100.00
50226;BME280;36113;50.742;6.432;2022-10-26T01:10:28;148333.78;;;13.65;100.00
50226;BME280;36113;50.742;6.432;2022-10-26T01:12:56;148284.81;;;13.45;100.00
50226;BME280;36113;50.742;6.432;2022-10-26T01:15:30;148328.78;;;13.63;100.00
50226;BME280;36113;50.742;6.432;2022-10-26T01:18:09;148327.47;;;13.63;100.00
50226;BME280;36113;50.742;6.432;2022-10-26T01:31:58;148409.13;;;13.96;100.00
50226;BME280;36113;50.742;6.432;2022-10-26T01:34:40;148425.44;;;14.03;100.00
50226;BME280;36113;50.742;6.432;2022-10-26T01:37:19;148421.66;;;14.01;100.00
50226;BME280;36113;50.742;6.432;2022-10-26T01:39:55;148389.00;;;13.88;100.00
50226;BME280;36113;50.742;6.432;2022-10-26T01:42:22;148412.88;;;13.98;100.00
50226;BME280;36113;50.742;6.432;2022-10-26T01:45:00;148399.03;;;13.92;100.00
50226;BME280;36113;50.742;6.432;2022-10-26T01:47:27;148419.16;;;14.00;100.00
50226;BME280;36113;50.742;6.432;2022-10-26T01:49:57;148411.59;;;13.97;100.00
50226;BME280;36113;50.742;6.432;2022-10-26T01:52:23;148421.66;;;14.01;100.00
50226;BME280;36113;50.742;6.432;2022-10-26T01:54:49;148474.38;;;14.23;100.00
50226;BME280;36113;50.742;6.432;2022-10-26T01:57:17;148491.97;;;14.30;100.00
50226;BME280;36113;50.742;6.432;2022-10-26T02:07:51;148507.06;;;14.36;100.00
50226;BME280;36113;50.742;6.432;2022-10-26T02:15:52;148489.47;;;14.29;100.00
50226;BME280;36113;50.742;6.432;2022-10-26T02:18:28;148528.41;;;14.45;100.00
50226;BME280;36113;50.742;6.432;2022-10-26T02:21:00;148523.38;;;14.43;100.00
50226;BME280;36113;50.742;6.432;2022-10-26T02:23:28;148528.41;;;14.45;100.00
50226;BME280;36113;50.742;6.432;2022-10-26T02:25:58;148523.38;;;14.43;100.00
50226;BME280;36113;50.742;6.432;2022-10-26T02:28:30;148537.19;;;14.49;100.00
50226;BME280;36113;50.742;6.432;2022-10-26T02:30:59;148499.50;;;14.33;100.00
50226;BME280;36113;50.742;6.432;2022-10-26T02:33:29;148518.38;;;14.41;100.00
50226;BME280;36113;50.742;6.432;2022-10-26T02:35:59;148519.59;;;14.41;100.00
50226;BME280;36113;50.742;6.432;2022-10-26T02:38:28;148530.94;;;14.46;100.00
50226;BME280;36113;50.742;6.432;2022-10-26T02:40:55;148517.06;;;14.40;100.00
50226;BME280;36113;50.742;6.432;2022-10-26T02:43:22;148460.59;;;14.17;100.00
50226;BME280;36113;50.742;6.432;2022-10-26T02:45:56;148505.81;;;14.36;100.00
50226;BME280;36113;50.742;6.432;2022-10-26T02:48:23;148475.69;;;14.23;100.00
50226;BME280;36113;50.742;6.432;2022-10-26T02:53:28;148488.22;;;14.29;100.00
50226;BME280;36113;50.742;6.432;2022-10-26T02:55:55;148486.94;;;14.28;100.00
50226;BME280;36113;50.742;6.432;2022-10-26T02:58:28;148443.00;;;14.10;100.00
50226;BME280;36113;50.742;6.432;2022-10-26T03:00:56;148444.25;;;14.11;100.00
50226;BME280;36113;50.742;6.432;2022-10-26T03:03:22;148394.03;;;13.90;100.00
50226;BME280;36113;50.742;6.432;2022-10-26T03:05:47;148426.69;;;14.03;100.00
50226;BME280;36113;50.742;6.432;2022-10-26T03:08:13;148464.38;;;14.19;100.00
50226;BME280;36113;50.742;6.432;2022-10-26T03:10:41;148438.00;;;14.08;100.00
50226;BME280;36113;50.742;6.432;2022-10-26T03:13:08;148466.84;;;14.20;100.00
50226;BME280;36113;50.742;6.432;2022-10-26T03:15:33;148405.34;;;13.95;100.00
50226;BME280;36113;50.742;6.432;2022-10-26T03:17:58;148401.56;;;13.93;100.00
50226;BME280;36113;50.742;6.432;2022-10-26T03:20:24;148395.28;;;13.91;100.00
50226;BME280;36113;50.742;6.432;2022-10-26T03:22:49;148400.34;;;13.93;100.00
50226;BME280;36113;50.742;6.432;2022-10-26T03:25:14;148422.91;;;14.02;100.00
50226;BME280;36113;50.742;6.432;2022-10-26T03:27:40;148426.69;;;14.03;100.00
50226;BME280;36113;50.742;6.432;2022-10-26T03:30:06;148392.78;;;13.90;100.00
50226;BME280;36113;50.742;6.432;2022-10-26T03:32:32;148425.44;;;14.03;100.00
50226;BME280;36113;50.742;6.432;2022-10-26T03:34:58;148384.00;;;13.86;100.00
50226;BME280;36113;50.742;6.432;2022-10-26T03:37:23;148389.00;;;13.88;100.00
50226;BME280;36113;50.742;6.432;2022-10-26T03:39:48;148397.81;;;13.92;100.00
50226;BME280;36113;50.742;6.432;2022-10-26T03:42:14;148420.38;;;14.01;100.00
50226;BME280;36113;50.742;6.432;2022-10-26T03:44:39;148400.34;;;13.93;100.00
50226;BME280;36113;50.742;6.432;2022-10-26T03:47:04;148360.13;;;13.76;100.00
50226;BME280;36113;50.742;6.432;2022-10-26T03:49:30;148415.38;;;13.99;100.00
50226;BME280;36113;50.742;6.432;2022-10-26T03:51:55;148422.91;;;14.02;100.00
50226;BME280;36113;50.742;6.432;2022-10-26T03:54:20;148410.34;;;13.97;100.00
50226;BME280;36113;50.742;6.432;2022-10-26T03:56:45;148425.44;;;14.03;100.00
50226;BME280;36113;50.742;6.432;2022-10-26T03:59:11;148406.59;;;13.95;100.00
50226;BME280;36113;50.742;6.432;2022-10-26T04:01:36;148438.00;;;14.08;100.00
50226;BME280;36113;50.742;6.432;2022-10-26T04:04:02;148435.47;;;14.07;100.00
50226;BME280;36113;50.742;6.432;2022-10-26T04:06:28;148407.81;;;13.96;100.00
50226;BME280;36113;50.742;6.432;2022-10-26T04:08:53;148382.72;;;13.85;100.00
50226;BME280;36113;50.742;6.432;2022-10-26T04:11:26;148424.16;;;14.02;100.00
50226;BME280;36113;50.742;6.432;2022-10-26T04:13:52;148405.34;;;13.95;100.00
50226;BME280;36113;50.742;6.432;2022-10-26T04:16:17;148375.22;;;13.82;100.00
50226;BME280;36113;50.742;6.432;2022-10-26T04:18:42;148406.59;;;13.95;100.00
50226;BME280;36113;50.742;6.432;2022-10-26T04:21:08;148396.56;;;13.91;100.00
50226;BME280;36113;50.742;6.432;2022-10-26T04:23:33;148390.25;;;13.88;100.00
50226;BME280;36113;50.742;6.432;2022-10-26T04:25:58;148399.03;;;13.92;100.00
50226;BME280;36113;50.742;6.432;2022-10-26T04:28:23;148363.91;;;13.78;100.00
50226;BME280;36113;50.742;6.432;2022-10-26T04:30:49;148387.78;;;13.87;100.00
50226;BME280;36113;50.742;6.432;2022-10-26T04:33:14;148399.03;;;13.92;100.00
50226;BME280;36113;50.742;6.432;2022-10-26T04:35:39;148355.13;;;13.74;100.00
50226;BME280;36113;50.742;6.432;2022-10-26T04:38:06;148386.47;;;13.87;100.00
50226;BME280;36113;50.742;6.432;2022-10-26T04:40:32;148340.03;;;13.68;100.00
50226;BME280;36113;50.742;6.432;2022-10-26T04:42:58;148366.44;;;13.79;100.00
50226;BME280;36113;50.742;6.432;2022-10-26T04:45:24;148299.91;;;13.52;100.00
50226;BME280;36113;50.742;6.432;2022-10-26T04:48:05;148371.44;;;13.81;100.00
50226;BME280;36113;50.742;6.432;2022-10-26T04:50:32;148389.00;;;13.88;100.00
50226;BME280;36113;50.742;6.432;2022-10-26T04:52:57;148356.38;;;13.75;100.00
50226;BME280;36113;50.742;6.432;2022-10-26T04:55:23;148390.25;;;13.88;100.00
50226;BME280;36113;50.742;6.432;2022-10-26T04:57:48;148409.13;;;13.96;100.00
50226;BME280;36113;50.742;6.432;2022-10-26T05:00:14;148409.13;;;13.96;100.00
50226;BME280;36113;50.742;6.432;2022-10-26T05:02:39;148399.03;;;13.92;100.00
50226;BME280;36113;50.742;6.432;2022-10-26T05:05:05;148410.34;;;13.97;100.00
50226;BME280;36113;50.742;6.432;2022-10-26T05:07:30;148402.81;;;13.94;100.00
50226;BME280;36113;50.742;6.432;2022-10-26T05:09:55;148397.81;;;13.92;100.00
50226;BME280;36113;50.742;6.432;2022-10-26T05:12:21;148304.91;;;13.54;100.00
50226;BME280;36113;50.742;6.432;2022-10-26T05:14:46;148367.69;;;13.79;100.00
50226;BME280;36113;50.742;6.432;2022-10-26T05:17:11;148373.94;;;13.82;100.00
50226;BME280;36113;50.742;6.432;2022-10-26T05:19:37;148377.69;;;13.83;100.00
50226;BME280;36113;50.742;6.432;2022-10-26T05:22:03;148366.44;;;13.79;100.00
50226;BME280;36113;50.742;6.432;2022-10-26T05:24:28;148350.09;;;13.72;100.00
50226;BME280;36113;50.742;6.432;2022-10-26T05:26:53;148361.38;;;13.77;100.00
50226;BME280;36113;50.742;6.432;2022-10-26T05:29:19;148323.72;;;13.61;100.00
50226;BME280;36113;50.742;6.432;2022-10-26T05:31:44;148346.34;;;13.71;100.00
50226;BME280;36113;50.742;6.432;2022-10-26T05:34:09;148318.69;;;13.59;100.00
50226;BME280;36113;50.742;6.432;2022-10-26T05:36:35;148309.91;;;13.56;100.00
50226;BME280;36113;50.742;6.432;2022-10-26T05:39:00;148291.13;;;13.48;100.00
50226;BME280;36113;50.742;6.432;2022-10-26T05:41:25;148271.03;;;13.40;100.00
50226;BME280;36113;50.742;6.432;2022-10-26T05:43:50;148233.31;;;13.24;100.00
50226;BME280;36113;50.742;6.432;2022-10-26T05:46:16;148258.47;;;13.35;100.00
50226;BME280;36113;50.742;6.432;2022-10-26T05:48:41;148262.25;;;13.36;100.00
50226;BME280;36113;50.742;6.432;2022-10-26T05:51:07;148228.31;;;13.22;100.00
50226;BME280;36113;50.742;6.432;2022-10-26T05:53:32;148225.78;;;13.21;100.00
50226;BME280;36113;50.742;6.432;2022-10-26T05:55:58;148185.66;;;13.05;100.00
50226;BME280;36113;50.742;6.432;2022-10-26T05:58:23;148212.00;;;13.16;100.00
50226;BME280;36113;50.742;6.432;2022-10-26T06:03:44;148237.09;;;13.26;100.00
50226;BME280;36113;50.742;6.432;2022-10-26T06:06:13;148252.16;;;13.32;100.00
50226;BME280;36113;50.742;6.432;2022-10-26T06:08:38;148267.25;;;13.38;100.00
50226;BME280;36113;50.742;6.432;2022-10-26T06:11:04;148237.09;;;13.26;100.00
50226;BME280;36113;50.742;6.432;2022-10-26T06:13:31;148266.00;;;13.38;100.00
50226;BME280;36113;50.742;6.432;2022-10-26T06:24:48;148228.31;;;13.22;100.00
50226;BME280;36113;50.742;6.432;2022-10-26T06:27:15;148206.97;;;13.13;100.00
50226;BME280;36113;50.742;6.432;2022-10-26T06:30:05;148178.13;;;13.02;100.00
50226;BME280;36113;50.742;6.432;2022-10-26T06:32:32;148158.03;;;12.93;100.00
50226;BME280;36113;50.742;6.432;2022-10-26T06:35:13;148135.47;;;12.84;100.00
50226;BME280;36113;50.742;6.432;2022-10-26T06:37:44;148151.72;;;12.91;100.00
50226;BME280;36113;50.742;6.432;2022-10-26T06:40:12;148130.41;;;12.82;100.00
50226;BME280;36113;50.742;6.432;2022-10-26T06:42:39;148106.59;;;12.72;100.00
50226;BME280;36113;50.742;6.432;2022-10-26T06:45:05;148129.16;;;12.82;100.00
50226;BME280;36113;50.742;6.432;2022-10-26T06:47:38;148121.63;;;12.79;100.00
50226;BME280;36113;50.742;6.432;2022-10-26T06:50:18;148136.72;;;12.85;100.00
50226;BME280;36113;50.742;6.432;2022-10-26T06:53:20;148096.53;;;12.68;100.00
50226;BME280;36113;50.742;6.432;2022-10-26T06:55:49;148126.63;;;12.81;100.00
50226;BME280;36113;50.742;6.432;2022-10-26T06:58:16;148077.75;;;12.61;100.00
50226;BME280;36113;50.742;6.432;2022-10-26T07:00:43;148125.41;;;12.80;100.00
50226;BME280;36113;50.742;6.432;2022-10-26T07:03:10;148136.72;;;12.85;100.00
50226;BME280;36113;50.742;6.432;2022-10-26T07:05:35;148105.31;;;12.72;100.00
50226;BME280;36113;50.742;6.432;2022-10-26T07:08:00;148146.72;;;12.89;100.00
50226;BME280;36113;50.742;6.432;2022-10-26T07:10:26;148155.50;;;12.92;100.00
50226;BME280;36113;50.742;6.432;2022-10-26T07:12:51;148165.56;;;12.97;100.00
50226;BME280;36113;50.742;6.432;2022-10-26T07:15:16;148165.56;;;12.97;100.00
50226;BME280;36113;50.742;6.432;2022-10-26T07:17:46;148156.78;;;12.93;100.00
50226;BME280;36113;50.742;6.432;2022-10-26T07:20:13;148077.75;;;12.61;100.00
50226;BME280;36113;50.742;6.432;2022-10-26T07:22:39;148135.47;;;12.84;100.00
50226;BME280;36113;50.742;6.432;2022-10-26T07:25:05;148127.94;;;12.81;100.00
50226;BME280;36113;50.742;6.432;2022-10-26T07:27:32;148106.59;;;12.72;100.00
50226;BME280;36113;50.742;6.432;2022-10-26T07:29:57;148089.06;;;12.65;100.00
50226;BME280;36113;50.742;6.432;2022-10-26T07:32:23;148117.88;;;12.77;100.00
50226;BME280;36113;50.742;6.432;2022-10-26T07:34:48;148114.09;;;12.75;100.00
50226;BME280;36113;50.742;6.432;2022-10-26T07:37:13;148141.72;;;12.87;100.00
50226;BME280;36113;50.742;6.432;2022-10-26T07:39:38;148171.81;;;12.99;100.00
50226;BME280;36113;50.742;6.432;2022-10-26T07:42:04;148222.00;;;13.20;100.00
50226;BME280;36113;50.742;6.432;2022-10-26T07:44:29;148252.16;;;13.32;100.00
50226;BME280;36113;50.742;6.432;2022-10-26T07:46:54;148351.34;;;13.73;100.00
50226;BME280;36113;50.742;6.432;2022-10-26T07:49:20;148368.91;;;13.80;100.00
50226;BME280;36113;50.742;6.432;2022-10-26T07:51:45;148470.63;;;14.21;100.00
50226;BME280;36113;50.742;6.432;2022-10-26T07:54:10;148478.16;;;14.24;100.00
50226;BME280;36113;50.742;6.432;2022-10-26T07:56:36;148538.44;;;14.49;100.00
50226;BME280;36113;50.742;6.432;2022-10-26T07:59:01;148587.47;;;14.69;100.00
50226;BME280;36113;50.742;6.432;2022-10-26T08:01:27;148606.34;;;14.77;100.00
50226;BME280;36113;50.742;6.432;2022-10-26T08:03:53;148613.84;;;14.80;100.00
50226;BME280;36113;50.742;6.432;2022-10-26T08:06:20;148611.38;;;14.79;100.00
50226;BME280;36113;50.742;6.432;2022-10-26T08:08:45;148611.38;;;14.79;100.00
50226;BME280;36113;50.742;6.432;2022-10-26T08:11:15;148610.13;;;14.78;100.00
50226;BME280;36113;50.742;6.432;2022-10-26T08:13:41;148628.94;;;14.86;100.00
50226;BME280;36113;50.742;6.432;2022-10-26T08:16:06;148631.47;;;14.87;100.00
50226;BME280;36113;50.742;6.432;2022-10-26T08:18:32;148662.88;;;15.00;100.00
50226;BME280;36113;50.742;6.432;2022-10-26T08:21:09;148689.25;;;15.11;100.00
50226;BME280;36113;50.742;6.432;2022-10-26T08:23:35;148747.06;;;15.34;100.00
50226;BME280;36113;50.742;6.432;2022-10-26T08:26:02;148786.00;;;15.50;100.00
50226;BME280;36113;50.742;6.432;2022-10-26T08:28:28;148859.00;;;15.80;100.00
50226;BME280;36113;50.742;6.432;2022-10-26T08:30:54;148904.22;;;15.99;100.00
50226;BME280;36113;50.742;6.432;2022-10-26T08:33:20;148896.72;;;15.96;100.00
50226;BME280;36113;50.742;6.432;2022-10-26T08:35:46;148928.13;;;16.08;100.00
50226;BME280;36113;50.742;6.432;2022-10-26T08:38:11;148856.47;;;15.79;100.00
50226;BME280;36113;50.742;6.432;2022-10-26T08:40:39;148925.63;;;16.07;100.00
50226;BME280;36113;50.742;6.432;2022-10-26T08:43:16;148954.53;;;16.19;100.00
50226;BME280;36113;50.742;6.432;2022-10-26T08:48:38;148935.69;;;16.11;100.00
50226;BME280;36113;50.742;6.432;2022-10-26T08:51:17;149055.16;;;16.60;100.00
50226;BME280;36113;50.742;6.432;2022-10-26T08:53:59;149062.69;;;16.63;100.00
50226;BME280;36113;50.742;6.432;2022-10-26T08:56:28;149095.41;;;16.77;100.00
50226;BME280;36113;50.742;6.432;2022-10-26T08:59:01;149135.69;;;16.93;100.00
50226;BME280;36113;50.742;6.432;2022-10-26T09:01:32;149154.59;;;17.01;100.00
50226;BME280;36113;50.742;6.432;2022-10-26T09:04:00;149165.94;;;17.05;100.00
50226;BME280;36113;50.742;6.432;2022-10-26T09:09:16;149214.97;;;17.25;100.00
50226;BME280;36113;50.742;6.432;2022-10-26T09:11:55;149254.03;;;17.41;100.00
50226;BME280;36113;50.742;6.432;2022-10-26T09:14:40;149277.91;;;17.51;100.00
50226;BME280;36113;50.742;6.432;2022-10-26T09:17:53;149288.00;;;17.55;100.00
50226;BME280;36113;50.742;6.432;2022-10-26T09:25:59;149338.34;;;17.76;100.00
50226;BME280;36113;50.742;6.432;2022-10-26T09:28:27;149334.56;;;17.74;98.78
50226;BME280;36113;50.742;6.432;2022-10-26T09:30:56;149371.09;;;17.89;97.25
50226;BME280;36113;50.742;6.432;2022-10-26T09:33:24;149388.75;;;17.96;98.32
50226;BME280;36113;50.742;6.432;2022-10-26T09:36:03;149402.59;;;18.02;97.18
50226;BME280;36113;50.742;6.432;2022-10-26T09:38:40;149422.75;;;18.10;98.01
50226;BME280;36113;50.742;6.432;2022-10-26T09:41:21;149441.63;;;18.18;97.85
50226;BME280;36113;50.742;6.432;2022-10-26T09:46:54;149461.78;;;18.26;97.38
50226;BME280;36113;50.742;6.432;2022-10-26T09:49:25;149471.81;;;18.30;97.21
50226;BME280;36113;50.742;6.432;2022-10-26T09:51:55;149459.22;;;18.25;96.61
50226;BME280;36113;50.742;6.432;2022-10-26T09:54:20;149488.19;;;18.37;96.16
50226;BME280;36113;50.742;6.432;2022-10-26T09:56:55;149481.94;;;18.34;96.01
50226;BME280;36113;50.742;6.432;2022-10-26T09:59:23;149510.84;;;18.46;96.31
50226;BME280;36113;50.742;6.432;2022-10-26T10:01:49;149531.03;;;18.54;95.74
50226;BME280;36113;50.742;6.432;2022-10-26T10:04:16;149534.78;;;18.56;95.21
50226;BME280;36113;50.742;6.432;2022-10-26T10:06:43;149497.00;;;18.41;95.91
50226;BME280;36113;50.742;6.432;2022-10-26T10:09:19;149510.84;;;18.46;94.71
50226;BME280;36113;50.742;6.432;2022-10-26T10:11:49;149510.84;;;18.46;95.29
50226;BME280;36113;50.742;6.432;2022-10-26T10:14:23;149541.13;;;18.59;94.79
50226;BME280;36113;50.742;6.432;2022-10-26T10:16:52;149565.03;;;18.68;94.76
50226;BME280;36113;50.742;6.432;2022-10-26T10:19:26;149567.56;;;18.69;94.96
50226;BME280;36113;50.742;6.432;2022-10-26T10:21:57;149571.34;;;18.71;94.77
50226;BME280;36113;50.742;6.432;2022-10-26T10:24:26;149578.91;;;18.74;94.12
50226;BME280;36113;50.742;6.432;2022-10-26T10:29:52;149595.28;;;18.81;93.22
50226;BME280;36113;50.742;6.432;2022-10-26T10:32:27;149577.63;;;18.73;93.49
50226;BME280;36113;50.742;6.432;2022-10-26T10:34:57;149592.75;;;18.80;93.53
50226;BME280;36113;50.742;6.432;2022-10-26T10:37:35;149611.69;;;18.87;94.03
50226;BME280;36113;50.742;6.432;2022-10-26T10:40:14;149616.75;;;18.89;93.78
50226;BME280;36113;50.742;6.432;2022-10-26T10:42:42;149618.00;;;18.90;94.69
50226;BME280;36113;50.742;6.432;2022-10-26T10:45:20;149639.41;;;18.99;93.56
50226;BME280;36113;50.742;6.432;2022-10-26T10:50:38;149683.47;;;19.17;93.74
50226;BME280;36113;50.742;6.432;2022-10-26T11:01:20;149697.38;;;19.22;92.75
50226;BME280;36113;50.742;6.432;2022-10-26T11:06:50;149715.00;;;19.29;90.36
50226;BME280;36113;50.742;6.432;2022-10-26T11:09:23;149741.47;;;19.40;90.79
50226;BME280;36113;50.742;6.432;2022-10-26T11:12:08;149718.78;;;19.31;90.92
50226;BME280;36113;50.742;6.432;2022-10-26T11:14:40;149754.06;;;19.45;90.64
50226;BME280;36113;50.742;6.432;2022-10-26T11:17:17;149728.84;;;19.35;89.63
50226;BME280;36113;50.742;6.432;2022-10-26T11:22:19;149737.69;;;19.39;90.45
50226;BME280;36113;50.742;6.432;2022-10-26T11:24:49;149738.97;;;19.39;91.04
50226;BME280;36113;50.742;6.432;2022-10-26T11:30:16;149796.91;;;19.63;90.71
50226;BME280;36113;50.742;6.432;2022-10-26T11:32:46;149810.81;;;19.68;90.37
50226;BME280;36113;50.742;6.432;2022-10-26T11:37:55;149785.59;;;19.58;89.04
50226;BME280;36113;50.742;6.432;2022-10-26T11:40:29;149830.97;;;19.77;89.57
50226;BME280;36113;50.742;6.432;2022-10-26T11:43:20;149839.81;;;19.80;89.29
50226;BME280;36113;50.742;6.432;2022-10-26T11:46:15;149813.28;;;19.70;88.06
50226;BME280;36113;50.742;6.432;2022-10-26T11:48:46;149725.06;;;19.34;90.14
50226;BME280;36113;50.742;6.432;2022-10-26T11:51:35;149781.81;;;19.57;90.08
50226;BME280;36113;50.742;6.432;2022-10-26T11:54:09;149716.25;;;19.30;90.07
50226;BME280;36113;50.742;6.432;2022-10-26T11:56:40;149766.66;;;19.51;90.64
50226;BME280;36113;50.742;6.432;2022-10-26T11:59:16;149765.41;;;19.50;90.51
50226;BME280;36113;50.742;6.432;2022-10-26T12:01:42;149751.56;;;19.44;90.82
50226;BME280;36113;50.742;6.432;2022-10-26T12:04:09;149771.69;;;19.53;89.94
50226;BME280;36113;50.742;6.432;2022-10-26T12:06:35;149799.44;;;19.64;90.00
50226;BME280;36113;50.742;6.432;2022-10-26T12:09:05;149812.06;;;19.69;87.12
50226;BME280;36113;50.742;6.432;2022-10-26T12:17:04;149894.00;;;20.02;84.06
50226;BME280;36113;50.742;6.432;2022-10-26T12:22:13;149868.81;;;19.92;76.94
50226;BME280;36113;50.742;6.432;2022-10-26T12:24:44;149873.88;;;19.94;75.78
50226;BME280;36113;50.742;6.432;2022-10-26T12:35:33;149883.94;;;19.98;74.25
50226;BME280;36113;50.742;6.432;2022-10-26T12:40:47;149842.34;;;19.81;73.54
50226;BME280;36113;50.742;6.432;2022-10-26T12:45:41;149853.69;;;19.86;73.60
50226;BME280;36113;50.742;6.432;2022-10-26T12:48:38;149891.53;;;20.01;74.86
50226;BME280;36113;50.742;6.432;2022-10-26T12:56:50;149866.31;;;19.91;74.50
50226;BME280;36113;50.742;6.432;2022-10-26T12:59:38;149936.88;;;20.20;72.67
50226;BME280;36113;50.742;6.432;2022-10-26T13:05:23;149936.88;;;20.20;72.10
50226;BME280;36113;50.742;6.432;2022-10-26T13:07:49;149926.81;;;20.16;72.21
50226;BME280;36113;50.742;6.432;2022-10-26T13:10:21;149938.16;;;20.20;71.63
50226;BME280;36113;50.742;6.432;2022-10-26T13:15:28;149921.75;;;20.14;70.38
50226;BME280;36113;50.742;6.432;2022-10-26T13:18:12;149958.34;;;20.29;69.22
50226;BME280;36113;50.742;6.432;2022-10-26T13:21:07;149955.81;;;20.28;69.10
50226;BME280;36113;50.742;6.432;2022-10-26T13:23:38;149931.84;;;20.18;70.09
50226;BME280;36113;50.742;6.432;2022-10-26T13:31:05;149888.97;;;20.00;67.26
50226;BME280;36113;50.742;6.432;2022-10-26T13:33:40;149882.69;;;19.98;67.70
50226;BME280;36113;50.742;6.432;2022-10-26T13:36:33;149909.16;;;20.09;67.22
50226;BME280;36113;50.742;6.432;2022-10-26T13:39:26;149915.44;;;20.11;68.30
50226;BME280;36113;50.742;6.432;2022-10-26T13:41:51;149923.00;;;20.14;68.37
50226;BME280;36113;50.742;6.432;2022-10-26T13:47:24;149873.88;;;19.94;67.22
50226;BME280;36113;50.742;6.432;2022-10-26T13:49:55;149849.91;;;19.84;68.74
50226;BME280;36113;50.742;6.432;2022-10-26T13:52:29;149857.50;;;19.88;68.39
50226;BME280;36113;50.742;6.432;2022-10-26T13:55:01;149830.97;;;19.77;68.87
50226;BME280;36113;50.742;6.432;2022-10-26T13:57:35;149858.72;;;19.88;68.05
50226;BME280;36113;50.742;6.432;2022-10-26T14:00:28;149837.31;;;19.79;69.76
50226;BME280;36113;50.742;6.432;2022-10-26T14:02:53;149803.22;;;19.65;71.07
50226;BME280;36113;50.742;6.432;2022-10-26T14:05:20;149795.66;;;19.62;70.00
50226;BME280;36113;50.742;6.432;2022-10-26T14:07:54;149759.09;;;19.47;69.26
50226;BME280;36113;50.742;6.432;2022-10-26T14:10:27;149795.66;;;19.62;69.63
50226;BME280;36113;50.742;6.432;2022-10-26T14:12:54;149730.09;;;19.36;70.98
50226;BME280;36113;50.742;6.432;2022-10-26T14:15:24;149781.81;;;19.57;70.93
50226;BME280;36113;50.742;6.432;2022-10-26T14:17:51;149784.31;;;19.58;72.02
50226;BME280;36113;50.742;6.432;2022-10-26T14:20:20;149799.44;;;19.64;71.32
50226;BME280;36113;50.742;6.432;2022-10-26T14:22:46;149783.06;;;19.57;71.65
50226;BME280;36113;50.742;6.432;2022-10-26T14:25:20;149785.59;;;19.58;69.99
50226;BME280;36113;50.742;6.432;2022-10-26T14:27:45;149766.66;;;19.51;70.18
50226;BME280;36113;50.742;6.432;2022-10-26T14:30:31;149776.78;;;19.55;69.29
50226;BME280;36113;50.742;6.432;2022-10-26T14:32:58;149757.84;;;19.47;70.93
50226;BME280;36113;50.742;6.432;2022-10-26T14:35:27;149736.44;;;19.38;71.35
50226;BME280;36113;50.742;6.432;2022-10-26T14:37:59;149756.59;;;19.46;70.52
50226;BME280;36113;50.742;6.432;2022-10-26T14:40:29;149726.38;;;19.34;70.50
50226;BME280;36113;50.742;6.432;2022-10-26T14:42:57;149747.78;;;19.43;70.60
50226;BME280;36113;50.742;6.432;2022-10-26T14:47:52;149694.84;;;19.21;73.95
50226;BME280;36113;50.742;6.432;2022-10-26T14:50:22;149677.22;;;19.14;73.35
50226;BME280;36113;50.742;6.432;2022-10-26T14:52:57;149718.78;;;19.31;74.01
50226;BME280;36113;50.742;6.432;2022-10-26T14:55:23;149706.19;;;19.26;74.31
50226;BME280;36113;50.742;6.432;2022-10-26T14:57:51;149701.16;;;19.24;74.16
50226;BME280;36113;50.742;6.432;2022-10-26T15:00:18;149683.47;;;19.17;74.02